Antonito, Colorado
Current Conditions -  °F | °C
As of 5:52 PM on Tuesday 21 Oct 2014 (Local Time) from KALS Reporting Station
Clear Clear  
Wind Chill: 56°   Ceiling: Unl
Heat Index: 56°   Visibility: 10mi
Dew Point: 38°   Wind: 10mph
Humidity: 51%   Direction: 170°S
Pressure: 30.09"   Gusts: NA
Location:  37.08°N, 106.01°W
Report Text: KALS 212352Z AUTO 17009KT 10SM CLR 13/03 A3009 RMK AO2 SLP146 60001 T01330033 10167 20128 56009
Loading
Personal Weather Stations






























Interactive Weather Map
Tropical Storm Tracking
New forecast layout! Learn more

10-Day Weather Forecast

Advertisements
Track Severe Weather on mobile